Time;durP1;ratioP1;P1;durP2;ratioP2;P2;SDS_P1;SDS_P2;PMS_P1;PMS_P2;Temp;Humidity;BMP_temperature;BMP_pressure;BME280_temperature;BME280_humidity;BME280_pressure;Samples;Min_cycle;Max_cycle;Signal;HPM_P1;HPM_P2
2022/08/18 00:00:25;;;;;;;;;;;;;;;15.63;50.60;95236.81;5019356;28;20514;-70
2022/08/18 00:02:50;;;;;;;;;;;;;;;15.59;50.98;95244.50;5009327;28;19952;-70
2022/08/18 00:05:15;;;;;;;;;;;;;;;15.52;50.90;95240.16;5006805;28;19925;-69
2022/08/18 00:07:40;;;;;;;;;;;;;;;15.42;51.37;95240.66;5005845;28;20357;-70
2022/08/18 00:10:06;;;;;;;;;;;;;;;15.45;51.30;95242.91;5004465;28;19947;-69
2022/08/18 00:12:36;;;;;;;;;;;;;;;15.42;51.39;95243.34;5010256;28;19924;-69
2022/08/18 00:15:04;;;;;;;;;;;;;;;15.42;51.27;95252.22;5005119;28;19914;-69
2022/08/18 00:17:29;;;;;;;;;;;;;;;15.60;50.32;95245.28;5006474;28;20479;-70
2022/08/18 00:19:54;;;;;;;;;;;;;;;15.66;50.15;95247.13;4987680;28;19922;-70
2022/08/18 00:22:20;;;;;;;;;;;;;;;15.88;49.13;95249.41;4987871;28;20003;-70
2022/08/18 00:24:47;;;;;;;;;;;;;;;16.12;48.28;95249.59;5005859;28;20131;-70
2022/08/18 00:27:12;;;;;;;;;;;;;;;16.13;47.93;95245.84;4991427;28;19996;-70
2022/08/18 00:29:37;;;;;;;;;;;;;;;16.37;46.81;95243.34;5010310;28;19932;-70
2022/08/18 00:32:26;;;;;;;;;;;;;;;16.68;46.46;95254.13;5007196;28;19996;-69
2022/08/18 00:34:51;;;;;;;;;;;;;;;16.76;46.37;95249.28;5000893;28;20012;-70
2022/08/18 00:37:16;;;;;;;;;;;;;;;16.76;46.12;95246.59;5010152;28;20457;-69
2022/08/18 00:39:42;;;;;;;;;;;;;;;17.05;44.87;95248.69;4992008;28;19921;-70
2022/08/18 00:42:26;;;;;;;;;;;;;;;16.95;46.16;95251.09;5008421;28;19971;-70
2022/08/18 00:44:51;;;;;;;;;;;;;;;16.92;46.36;95257.75;4992729;28;19926;-69
2022/08/18 00:47:16;;;;;;;;;;;;;;;17.02;46.11;95258.03;4991112;28;19925;-70
2022/08/18 00:49:42;;;;;;;;;;;;;;;17.20;45.23;95259.06;5014453;28;20385;-70
2022/08/18 00:52:07;;;;;;;;;;;;;;;17.32;44.34;95252.88;4990751;28;20020;-70
2022/08/18 00:54:32;;;;;;;;;;;;;;;17.21;45.22;95252.66;4996060;28;19921;-69
2022/08/18 00:56:59;;;;;;;;;;;;;;;17.30;44.63;95257.69;4987974;28;19925;-70
2022/08/18 00:59:32;;;;;;;;;;;;;;;17.30;43.55;95255.00;4992865;28;19967;-69
2022/08/18 01:02:01;;;;;;;;;;;;;;;17.28;42.88;95253.34;4987433;28;20333;-70
2022/08/18 01:04:41;;;;;;;;;;;;;;;17.15;44.25;95258.94;4987935;28;19987;-70
2022/08/18 01:07:12;;;;;;;;;;;;;;;16.97;44.32;95255.22;5003458;28;19918;-70
2022/08/18 01:09:37;;;;;;;;;;;;;;;16.94;44.54;95260.22;4985783;28;19922;-70
2022/08/18 01:12:02;;;;;;;;;;;;;;;16.87;44.95;95261.13;4987376;28;20302;-70
2022/08/18 01:14:27;;;;;;;;;;;;;;;16.87;43.99;95263.00;4987470;28;20033;-70
2022/08/18 01:22:27;;;;;;;;;;;;;;;17.00;43.65;95265.50;4987227;28;19961;-70
2022/08/18 01:27:40;;;;;;;;;;;;;;;17.05;45.39;95269.38;4988083;28;20373;-70
2022/08/18 01:30:08;;;;;;;;;;;;;;;17.14;44.65;95271.53;4989461;28;19972;-70
2022/08/18 01:32:34;;;;;;;;;;;;;;;17.23;44.58;95271.25;4989007;28;19925;-70
2022/08/18 01:34:59;;;;;;;;;;;;;;;17.27;44.59;95273.22;4989693;28;19968;-70
2022/08/18 01:37:24;;;;;;;;;;;;;;;17.37;44.09;95274.56;4986044;28;20143;-70
2022/08/18 01:39:49;;;;;;;;;;;;;;;17.36;43.51;95278.28;4992460;28;19929;-70
2022/08/18 01:42:18;;;;;;;;;;;;;;;17.37;42.89;95271.88;4993204;28;19949;-70
2022/08/18 01:44:44;;;;;;;;;;;;;;;17.40;42.87;95261.44;5009959;28;20019;-70
2022/08/18 01:47:09;;;;;;;;;;;;;;;17.17;44.94;95274.84;5005352;28;20067;-70
2022/08/18 01:49:35;;;;;;;;;;;;;;;17.20;42.49;95267.13;5015305;28;19929;-70
2022/08/18 01:52:00;;;;;;;;;;;;;;;16.98;43.98;95272.16;4995457;28;19983;-70
2022/08/18 01:54:28;;;;;;;;;;;;;;;17.01;43.04;95260.97;5013158;28;19921;-70
2022/08/18 01:56:54;;;;;;;;;;;;;;;16.62;46.07;95259.38;5011561;28;19972;-71
2022/08/18 01:59:19;;;;;;;;;;;;;;;16.45;46.93;95269.09;5007542;28;19957;-69
2022/08/18 02:01:44;;;;;;;;;;;;;;;16.25;47.14;95265.53;5010578;28;19925;-70
2022/08/18 02:04:11;;;;;;;;;;;;;;;16.00;49.10;95263.75;4984114;28;19918;-70
2022/08/18 02:06:36;;;;;;;;;;;;;;;15.88;49.82;95266.31;5005606;28;19918;-71
2022/08/18 02:09:02;;;;;;;;;;;;;;;15.84;50.21;95264.31;4985436;28;19921;-70
2022/08/18 02:11:27;;;;;;;;;;;;;;;15.78;50.22;95263.31;5005123;28;19928;-70
2022/08/18 02:13:52;;;;;;;;;;;;;;;15.82;49.68;95261.00;5010543;28;19990;-70
2022/08/18 02:16:18;;;;;;;;;;;;;;;15.95;47.67;95254.72;5006600;28;20015;-71
2022/08/18 02:18:43;;;;;;;;;;;;;;;16.23;47.51;95254.22;5005739;28;19925;-70
2022/08/18 02:21:10;;;;;;;;;;;;;;;16.10;46.11;95255.19;5004104;28;19925;-69
2022/08/18 02:23:36;;;;;;;;;;;;;;;16.12;47.68;95252.28;4990511;28;19953;-70
2022/08/18 02:26:05;;;;;;;;;;;;;;;15.99;46.88;95254.06;4990037;28;20445;-70
2022/08/18 02:28:30;;;;;;;;;;;;;;;16.04;48.15;95253.38;5012361;28;19925;-70
2022/08/18 02:30:55;;;;;;;;;;;;;;;15.84;49.21;95245.53;5007503;28;19918;-71
2022/08/18 02:33:20;;;;;;;;;;;;;;;15.56;50.35;95238.72;5012767;28;20008;-69
2022/08/18 02:35:50;;;;;;;;;;;;;;;15.12;52.58;95244.78;5009923;28;20469;-69
2022/08/18 02:38:15;;;;;;;;;;;;;;;14.91;53.52;95245.94;5006298;28;19925;-70
2022/08/18 02:40:41;;;;;;;;;;;;;;;14.66;54.22;95244.81;5007107;28;20279;-69
2022/08/18 02:43:07;;;;;;;;;;;;;;;14.61;54.42;95258.00;5017427;28;20369;-71
2022/08/18 02:45:33;;;;;;;;;;;;;;;14.78;53.26;95250.34;5005766;28;19987;-70
2022/08/18 02:47:58;;;;;;;;;;;;;;;14.65;53.94;95253.88;5008488;28;20334;-71
2022/08/18 02:50:23;;;;;;;;;;;;;;;14.77;53.80;95255.91;5016162;28;19967;-69
2022/08/18 02:52:49;;;;;;;;;;;;;;;14.75;53.67;95255.31;5010462;28;19921;-69
2022/08/18 02:55:14;;;;;;;;;;;;;;;14.70;53.83;95251.41;5010949;28;19965;-69
2022/08/18 02:57:43;;;;;;;;;;;;;;;14.69;53.59;95254.28;5011141;28;19926;-69
2022/08/18 03:00:10;;;;;;;;;;;;;;;14.53;54.86;95251.06;5011457;28;19964;-69
2022/08/18 03:02:35;;;;;;;;;;;;;;;14.50;54.98;95253.31;5008434;28;20366;-68
2022/08/18 03:05:01;;;;;;;;;;;;;;;14.75;53.02;95249.97;5013923;28;19921;-68
2022/08/18 03:07:26;;;;;;;;;;;;;;;14.84;51.60;95249.50;5006507;28;20035;-68
2022/08/18 03:09:51;;;;;;;;;;;;;;;15.17;51.23;95244.16;5004218;28;20389;-70
2022/08/18 03:12:16;;;;;;;;;;;;;;;15.05;52.39;95249.38;5006877;28;20362;-69
2022/08/18 03:14:42;;;;;;;;;;;;;;;15.24;50.68;95251.09;5004751;28;20457;-70
2022/08/18 03:17:07;;;;;;;;;;;;;;;15.51;51.01;95250.09;5009969;28;20372;-70
2022/08/18 03:19:33;;;;;;;;;;;;;;;15.20;52.94;95265.97;5006009;28;20007;-70
2022/08/18 03:21:58;;;;;;;;;;;;;;;15.16;53.04;95267.44;4988046;28;19925;-70
2022/08/18 03:24:24;;;;;;;;;;;;;;;15.32;50.47;95263.44;5007757;28;20181;-71
2022/08/18 03:26:49;;;;;;;;;;;;;;;15.69;48.27;95261.94;4995029;28;20308;-70
2022/08/18 03:29:14;;;;;;;;;;;;;;;15.68;50.57;95258.47;4991910;28;20024;-70
2022/08/18 03:31:39;;;;;;;;;;;;;;;15.66;50.05;95257.00;5006845;28;20433;-71
2022/08/18 03:34:05;;;;;;;;;;;;;;;15.52;51.44;95251.75;4991036;28;19928;-70
2022/08/18 03:36:31;;;;;;;;;;;;;;;15.02;53.67;95263.22;5009116;28;19923;-69
2022/08/18 03:38:56;;;;;;;;;;;;;;;14.94;52.72;95254.41;4989262;28;19917;-70
2022/08/18 03:41:22;;;;;;;;;;;;;;;14.70;52.94;95248.72;5014885;28;20341;-69
2022/08/18 03:43:48;;;;;;;;;;;;;;;14.31;53.69;95258.56;4990050;28;19926;-70
2022/08/18 03:46:13;;;;;;;;;;;;;;;14.35;53.45;95254.41;5014036;28;20332;-69
2022/08/18 03:48:39;;;;;;;;;;;;;;;14.31;53.80;95250.53;4990281;28;19971;-70
2022/08/18 03:51:05;;;;;;;;;;;;;;;14.29;53.75;95249.91;4988625;28;20420;-70
2022/08/18 03:53:33;;;;;;;;;;;;;;;14.40;53.22;95251.09;5004232;28;19925;-69
2022/08/18 03:55:58;;;;;;;;;;;;;;;14.49;52.69;95249.00;5005779;28;19929;-68
2022/08/18 03:58:25;;;;;;;;;;;;;;;14.55;53.10;95243.63;5004403;28;19920;-70
2022/08/18 04:00:50;;;;;;;;;;;;;;;14.67;52.78;95251.81;5006430;28;20383;-71
2022/08/18 04:03:15;;;;;;;;;;;;;;;14.84;51.84;95249.50;4990835;28;19990;-70
2022/08/18 04:05:40;;;;;;;;;;;;;;;14.98;51.87;95246.72;4992462;28;20070;-70
2022/08/18 04:08:05;;;;;;;;;;;;;;;15.05;51.55;95244.84;5005517;28;20315;-70
2022/08/18 04:10:31;;;;;;;;;;;;;;;14.98;52.01;95247.56;5015375;28;19929;-69
2022/08/18 04:12:56;;;;;;;;;;;;;;;14.93;52.10;95242.00;5012347;28;19917;-69
2022/08/18 04:15:22;;;;;;;;;;;;;;;14.90;51.82;95244.31;5010748;28;20016;-69
2022/08/18 04:17:47;;;;;;;;;;;;;;;15.16;51.46;95239.84;4993938;28;19965;-70
2022/08/18 04:20:12;;;;;;;;;;;;;;;15.65;47.67;95245.47;4989494;28;19925;-70
2022/08/18 04:22:38;;;;;;;;;;;;;;;15.74;50.11;95246.81;4995241;28;20179;-70
2022/08/18 04:25:03;;;;;;;;;;;;;;;16.17;46.50;95249.72;5016237;28;19925;-71
2022/08/18 04:27:28;;;;;;;;;;;;;;;16.54;47.15;95245.41;5017151;28;20283;-69
2022/08/18 04:29:55;;;;;;;;;;;;;;;16.70;45.91;95244.00;5009379;28;20104;-71
2022/08/18 04:32:21;;;;;;;;;;;;;;;16.89;46.41;95242.06;5017459;28;20547;-70
2022/08/18 04:34:46;;;;;;;;;;;;;;;16.93;46.67;95243.25;5008574;28;20154;-70
2022/08/18 04:37:14;;;;;;;;;;;;;;;17.16;45.30;95233.66;5015290;28;21212;-70
2022/08/18 04:39:39;;;;;;;;;;;;;;;16.97;47.24;95238.25;5013650;28;19936;-70
2022/08/18 04:42:04;;;;;;;;;;;;;;;16.87;45.90;95239.63;4997039;28;20981;-70
2022/08/18 04:44:30;;;;;;;;;;;;;;;16.83;47.63;95241.13;5001833;28;19925;-70
2022/08/18 04:46:55;;;;;;;;;;;;;;;16.80;48.71;95241.59;4992276;28;19917;-70
2022/08/18 04:49:23;;;;;;;;;;;;;;;16.65;49.53;95247.34;5017838;28;20185;-71
2022/08/18 04:54:37;;;;;;;;;;;;;;;16.66;48.94;95243.63;5009425;28;20419;-70
2022/08/18 04:57:09;;;;;;;;;;;;;;;16.80;47.41;95244.28;4988747;28;20212;-71
2022/08/18 04:59:34;;;;;;;;;;;;;;;16.90;45.18;95243.75;4999145;28;19917;-70
2022/08/18 05:01:59;;;;;;;;;;;;;;;16.59;49.01;95249.06;5012287;28;20037;-70
2022/08/18 05:04:27;;;;;;;;;;;;;;;16.24;49.86;95253.16;4991891;28;20207;-71
2022/08/18 05:06:52;;;;;;;;;;;;;;;15.97;50.85;95248.06;5011223;28;20414;-69
2022/08/18 05:09:18;;;;;;;;;;;;;;;15.93;50.67;95244.19;5009761;28;20264;-70
2022/08/18 05:11:43;;;;;;;;;;;;;;;15.94;50.33;95253.88;4992600;28;20652;-70
2022/08/18 05:14:08;;;;;;;;;;;;;;;15.85;51.39;95255.22;5007163;28;19928;-70
2022/08/18 05:16:35;;;;;;;;;;;;;;;15.70;51.41;95250.16;4990420;28;19925;-70
2022/08/18 05:19:04;;;;;;;;;;;;;;;15.60;52.16;95253.34;4981263;28;20114;-70
2022/08/18 05:21:29;;;;;;;;;;;;;;;15.43;52.88;95253.84;5007939;28;19927;-70
2022/08/18 05:23:54;;;;;;;;;;;;;;;15.00;54.64;95265.28;5010972;28;19921;-69
2022/08/18 05:26:19;;;;;;;;;;;;;;;14.97;54.34;95263.84;5013378;28;20134;-71
2022/08/18 05:28:45;;;;;;;;;;;;;;;15.05;54.84;95268.13;5010345;28;20043;-69
2022/08/18 05:31:14;;;;;;;;;;;;;;;15.28;53.68;95258.72;5013960;28;19965;-70
2022/08/18 05:33:39;;;;;;;;;;;;;;;15.64;53.33;95269.84;5017899;28;20412;-70
2022/08/18 05:36:06;;;;;;;;;;;;;;;15.59;53.83;95275.84;5014085;28;19921;-70
2022/08/18 05:38:50;;;;;;;;;;;;;;;16.00;51.12;95273.66;4989398;28;19995;-70
2022/08/18 05:41:20;;;;;;;;;;;;;;;16.08;51.59;95277.91;5021005;28;19921;-70
2022/08/18 05:43:46;;;;;;;;;;;;;;;16.21;52.49;95277.78;4991919;28;19922;-71
2022/08/18 05:46:11;;;;;;;;;;;;;;;16.26;51.58;95272.53;5008979;28;19952;-70
2022/08/18 05:48:36;;;;;;;;;;;;;;;16.41;51.69;95268.72;4988632;28;19921;-70
2022/08/18 05:51:04;;;;;;;;;;;;;;;16.25;51.40;95268.22;5006098;28;19994;-69
2022/08/18 05:58:57;;;;;;;;;;;;;;;16.15;52.83;95288.59;4996118;28;19923;-71
2022/08/18 06:01:24;;;;;;;;;;;;;;;15.90;53.20;95287.56;4996593;28;19921;-70
2022/08/18 06:03:51;;;;;;;;;;;;;;;15.71;54.13;95289.41;4994473;28;20382;-70
2022/08/18 06:06:18;;;;;;;;;;;;;;;15.62;53.94;95286.16;4975138;28;20233;-69
2022/08/18 06:08:44;;;;;;;;;;;;;;;15.38;54.52;95285.06;4992150;28;19957;-70
2022/08/18 06:11:10;;;;;;;;;;;;;;;14.92;56.67;95290.50;4996053;28;20042;-70
2022/08/18 06:13:37;;;;;;;;;;;;;;;14.91;56.20;95286.16;5008171;28;20011;-70
2022/08/18 06:16:31;;;;;;;;;;;;;;;14.63;56.80;95285.44;5007940;28;19928;-70
2022/08/18 06:19:19;;;;;;;;;;;;;;;14.38;58.20;95283.44;5003466;28;19956;-70
2022/08/18 06:21:50;;;;;;;;;;;;;;;14.23;57.91;95282.84;5008930;28;19925;-70
2022/08/18 06:24:21;;;;;;;;;;;;;;;14.11;58.16;95286.16;4992351;28;20371;-70
2022/08/18 06:26:52;;;;;;;;;;;;;;;14.06;59.25;95283.31;5005012;28;20231;-70
2022/08/18 06:29:35;;;;;;;;;;;;;;;14.09;58.25;95288.25;5006641;28;19925;-70
2022/08/18 06:32:10;;;;;;;;;;;;;;;14.11;58.69;95299.53;5018429;28;20416;-69
2022/08/18 06:34:41;;;;;;;;;;;;;;;14.05;59.42;95295.06;5011191;28;19919;-70
2022/08/18 06:37:17;;;;;;;;;;;;;;;13.92;59.07;95286.00;5006704;28;20080;-69
2022/08/18 06:39:44;;;;;;;;;;;;;;;14.09;59.58;95288.25;4999167;28;20019;-69
2022/08/18 06:42:09;;;;;;;;;;;;;;;14.28;59.22;95291.09;5020232;28;19929;-69
2022/08/18 06:44:35;;;;;;;;;;;;;;;14.60;54.57;95285.84;4987306;28;19925;-69
2022/08/18 06:47:10;;;;;;;;;;;;;;;14.71;55.72;95292.38;5000564;28;19917;-70
2022/08/18 06:49:50;;;;;;;;;;;;;;;15.24;54.00;95294.00;5011708;28;19933;-70
2022/08/18 06:52:28;;;;;;;;;;;;;;;14.68;58.19;95296.31;5011152;28;19924;-69
2022/08/18 06:54:54;;;;;;;;;;;;;;;15.31;57.42;95301.19;5010509;28;19932;-69
2022/08/18 06:57:21;;;;;;;;;;;;;;;15.91;55.44;95293.78;4986305;28;19921;-70
2022/08/18 06:59:53;;;;;;;;;;;;;;;15.62;56.54;95294.19;5015726;28;19921;-70
2022/08/18 07:02:19;;;;;;;;;;;;;;;15.70;56.18;95290.41;4985372;28;19930;-70
2022/08/18 07:05:04;;;;;;;;;;;;;;;16.16;53.93;95288.38;5008280;28;20024;-70
2022/08/18 07:07:33;;;;;;;;;;;;;;;16.18;54.51;95293.53;5011170;28;20409;-69
2022/08/18 07:09:58;;;;;;;;;;;;;;;15.87;55.70;95293.38;4992733;28;20012;-68
2022/08/18 07:12:25;;;;;;;;;;;;;;;15.63;55.86;95292.34;5014824;28;20504;-69
2022/08/18 07:14:54;;;;;;;;;;;;;;;14.92;57.85;95301.22;4991540;28;20016;-69
2022/08/18 07:17:21;;;;;;;;;;;;;;;15.45;57.39;95297.41;4994389;28;20398;-70
2022/08/18 07:20:13;;;;;;;;;;;;;;;15.72;56.42;95299.09;4988729;28;19913;-69
2022/08/18 07:22:54;;;;;;;;;;;;;;;16.13;54.88;95304.91;5009496;28;19922;-70
2022/08/18 07:25:23;;;;;;;;;;;;;;;16.31;53.72;95311.38;5004199;28;19972;-69
2022/08/18 07:27:49;;;;;;;;;;;;;;;16.50;53.13;95323.81;4986848;28;19963;-69
2022/08/18 07:30:20;;;;;;;;;;;;;;;17.14;50.77;95319.94;4993356;28;19960;-69
2022/08/18 07:32:48;;;;;;;;;;;;;;;17.73;49.65;95326.59;5003959;28;20297;-71
2022/08/18 07:35:16;;;;;;;;;;;;;;;18.08;48.26;95329.59;5008674;28;20445;-70
2022/08/18 07:37:41;;;;;;;;;;;;;;;18.46;47.88;95324.78;5010280;28;20361;-69
2022/08/18 07:40:13;;;;;;;;;;;;;;;18.40;46.41;95331.94;5010529;28;19965;-70
2022/08/18 07:42:48;;;;;;;;;;;;;;;18.84;45.80;95338.81;4981153;28;20055;-70
2022/08/18 07:45:22;;;;;;;;;;;;;;;19.24;43.75;95340.69;5011274;28;20003;-70
2022/08/18 07:47:59;;;;;;;;;;;;;;;19.13;44.63;95346.94;5017066;28;20567;-71
2022/08/18 07:50:26;;;;;;;;;;;;;;;19.55;43.25;95349.38;5015699;28;19963;-70
2022/08/18 07:52:57;;;;;;;;;;;;;;;18.38;46.03;95352.88;4993601;28;19988;-71
2022/08/18 07:55:26;;;;;;;;;;;;;;;18.64;45.79;95361.59;5011601;28;20262;-70
2022/08/18 07:57:53;;;;;;;;;;;;;;;19.08;44.79;95366.56;5007962;28;20445;-70
2022/08/18 08:00:18;;;;;;;;;;;;;;;19.05;44.73;95367.03;5012475;28;19924;-70
2022/08/18 08:02:43;;;;;;;;;;;;;;;19.64;43.94;95374.09;5009916;28;20243;-70
2022/08/18 08:05:15;;;;;;;;;;;;;;;19.49;41.93;95366.56;5020207;28;20462;-69
2022/08/18 08:07:53;;;;;;;;;;;;;;;19.31;44.18;95371.06;4992132;28;19975;-70
2022/08/18 08:10:18;;;;;;;;;;;;;;;19.24;44.08;95370.34;4995131;28;20000;-70
2022/08/18 08:12:46;;;;;;;;;;;;;;;19.75;42.92;95374.31;5013205;28;19921;-69
2022/08/18 08:15:17;;;;;;;;;;;;;;;19.97;42.11;95375.25;4996874;28;20130;-69
2022/08/18 08:18:06;;;;;;;;;;;;;;;19.83;42.03;95372.03;5010202;28;19921;-69
2022/08/18 08:20:32;;;;;;;;;;;;;;;20.24;40.57;95373.78;5014961;28;19925;-70
2022/08/18 08:22:57;;;;;;;;;;;;;;;20.27;41.94;95381.41;5004464;28;19975;-71
2022/08/18 08:25:25;;;;;;;;;;;;;;;19.56;42.15;95375.34;5008391;28;19921;-69
2022/08/18 08:27:51;;;;;;;;;;;;;;;19.32;43.17;95383.53;5021392;28;20019;-70
2022/08/18 08:30:17;;;;;;;;;;;;;;;19.84;42.59;95380.94;5008395;28;19931;-70
2022/08/18 08:32:46;;;;;;;;;;;;;;;20.15;42.24;95381.47;5014045;28;20004;-70
2022/08/18 08:35:13;;;;;;;;;;;;;;;19.76;43.22;95379.47;4991394;28;20482;-69
2022/08/18 08:37:42;;;;;;;;;;;;;;;20.12;42.02;95386.56;4990076;28;19993;-70
2022/08/18 08:40:28;;;;;;;;;;;;;;;19.80;43.19;95386.00;4990073;28;20336;-70
2022/08/18 08:43:01;;;;;;;;;;;;;;;19.91;42.84;95388.88;4999360;28;20083;-70
2022/08/18 08:45:26;;;;;;;;;;;;;;;19.42;43.87;95392.88;5001632;28;20414;-71
2022/08/18 08:48:09;;;;;;;;;;;;;;;19.21;44.25;95384.34;5010814;28;19976;-70
2022/08/18 08:50:38;;;;;;;;;;;;;;;19.26;44.93;95389.84;5009879;28;20103;-70
2022/08/18 08:53:07;;;;;;;;;;;;;;;18.71;45.57;95380.31;4996547;28;20012;-70
2022/08/18 08:55:36;;;;;;;;;;;;;;;18.04;47.13;95381.22;5014744;28;20023;-70
2022/08/18 08:58:01;;;;;;;;;;;;;;;18.14;46.94;95374.44;5016010;28;20012;-70
2022/08/18 09:00:27;;;;;;;;;;;;;;;18.01;46.66;95372.78;5012840;28;20540;-70
2022/08/18 09:02:58;;;;;;;;;;;;;;;17.38;47.80;95384.63;4993973;28;20492;-69
2022/08/18 09:05:27;;;;;;;;;;;;;;;17.56;48.21;95387.50;5013217;28;19948;-70
2022/08/18 09:08:01;;;;;;;;;;;;;;;17.36;48.95;95383.19;4994193;28;19917;-70
2022/08/18 09:10:38;;;;;;;;;;;;;;;17.77;48.17;95381.59;4992903;28;19925;-70
2022/08/18 09:13:22;;;;;;;;;;;;;;;18.26;46.94;95377.16;4993353;28;20336;-70
2022/08/18 09:16:06;;;;;;;;;;;;;;;18.51;46.40;95374.22;5014215;28;19920;-69
2022/08/18 09:18:43;;;;;;;;;;;;;;;17.89;47.03;95381.69;5009098;28;19967;-70
2022/08/18 09:21:11;;;;;;;;;;;;;;;17.65;47.87;95381.56;4989974;28;19988;-70
2022/08/18 09:23:40;;;;;;;;;;;;;;;17.99;47.06;95380.28;5009813;28;19925;-70
2022/08/18 09:26:25;;;;;;;;;;;;;;;18.00;46.84;95380.06;4992485;28;19929;-70
2022/08/18 09:28:56;;;;;;;;;;;;;;;18.42;45.68;95367.53;5012590;28;20012;-70
2022/08/18 09:31:21;;;;;;;;;;;;;;;18.90;44.52;95360.25;5014945;28;19928;-70
2022/08/18 09:34:44;;;;;;;;;;;;;;;-155.54;100.00;57697.75;5000966;28;20123;-70
2022/08/18 09:37:27;;;;;;;;;;;;;;;18.90;44.52;95360.25;5008656;28;20100;-70
2022/08/18 09:42:56;;;;;;;;;;;;;;;18.60;45.85;95369.34;5012376;28;19931;-70
2022/08/18 09:45:31;;;;;;;;;;;;;;;18.72;45.45;95371.19;4992324;28;19929;-70
2022/08/18 09:47:57;;;;;;;;;;;;;;;19.12;44.26;95362.31;5013564;28;19960;-71
2022/08/18 09:50:26;;;;;;;;;;;;;;;19.10;44.36;95361.72;4988337;28;20003;-71
2022/08/18 09:52:52;;;;;;;;;;;;;;;18.95;44.74;95362.25;5009105;28;20012;-72
2022/08/18 09:55:17;;;;;;;;;;;;;;;18.35;45.76;95364.16;4995689;28;20020;-70
2022/08/18 09:57:43;;;;;;;;;;;;;;;18.63;46.20;95368.84;5005028;28;20345;-69
2022/08/18 10:00:12;;;;;;;;;;;;;;;19.45;43.12;95366.19;4997297;28;20259;-68
2022/08/18 10:02:38;;;;;;;;;;;;;;;19.53;43.74;95365.00;4991569;28;20457;-70
2022/08/18 10:05:18;;;;;;;;;;;;;;;19.94;43.26;95372.19;5015748;28;19925;-69
2022/08/18 10:07:55;;;;;;;;;;;;;;;20.20;41.88;95368.03;5004908;28;19992;-69
2022/08/18 10:10:30;;;;;;;;;;;;;;;20.21;41.31;95369.69;4990736;28;20408;-70
2022/08/18 10:12:55;;;;;;;;;;;;;;;20.32;40.58;95356.31;5007928;28;19917;-70
2022/08/18 10:15:24;;;;;;;;;;;;;;;20.49;39.84;95353.59;5006251;28;19948;-79
2022/08/18 10:18:07;;;;;;;;;;;;;;;20.67;39.56;95359.84;4988962;28;19995;-78
2022/08/18 10:20:37;;;;;;;;;;;;;;;21.22;39.40;95365.41;4989972;28;20347;-78
2022/08/18 10:23:04;;;;;;;;;;;;;;;21.34;38.71;95359.84;5008300;28;19990;-76
2022/08/18 10:25:29;;;;;;;;;;;;;;;21.44;38.69;95353.72;5000084;28;20378;-78
2022/08/18 10:27:55;;;;;;;;;;;;;;;21.50;38.28;95347.31;5020681;28;19968;-79
2022/08/18 10:30:33;;;;;;;;;;;;;;;21.62;38.52;95350.69;5011769;28;20005;-76
2022/08/18 10:32:58;;;;;;;;;;;;;;;20.83;38.89;95350.84;5013954;28;20106;-78
2022/08/18 10:35:33;;;;;;;;;;;;;;;21.32;38.18;95346.59;4987857;28;20125;-77
2022/08/18 10:37:58;;;;;;;;;;;;;;;21.21;38.18;95344.81;5010866;28;20689;-77
2022/08/18 10:40:23;;;;;;;;;;;;;;;21.00;38.60;95344.56;5010132;28;20016;-78
2022/08/18 10:43:07;;;;;;;;;;;;;;;21.25;38.68;95340.53;4988148;28;20513;-76
2022/08/18 10:45:36;;;;;;;;;;;;;;;21.11;38.72;95346.31;5005392;28;20281;-75
2022/08/18 10:48:21;;;;;;;;;;;;;;;21.00;38.56;95339.16;4989314;28;19974;-78
2022/08/18 10:50:58;;;;;;;;;;;;;;;21.11;38.40;95340.91;4988742;28;20047;-79
2022/08/18 10:53:32;;;;;;;;;;;;;;;21.55;37.73;95339.22;5008336;28;20032;-77
2022/08/18 10:56:00;;;;;;;;;;;;;;;21.71;37.32;95348.34;5011346;28;20485;-77
2022/08/18 10:58:44;;;;;;;;;;;;;;;21.53;38.07;95344.09;5008234;28;19962;-79
2022/08/18 11:01:16;;;;;;;;;;;;;;;21.00;38.92;95339.97;5009601;28;19992;-79
2022/08/18 11:04:00;;;;;;;;;;;;;;;21.08;39.11;95341.41;5007490;28;19988;-78
2022/08/18 11:06:26;;;;;;;;;;;;;;;21.04;38.52;95342.19;5005597;28;20432;-78
2022/08/18 11:08:55;;;;;;;;;;;;;;;20.83;39.31;95340.03;5007051;28;19989;-78
2022/08/18 11:11:21;;;;;;;;;;;;;;;21.09;38.05;95345.78;5011528;28;20364;-79
2022/08/18 11:14:10;;;;;;;;;;;;;;;20.72;38.96;95343.66;5016111;28;20244;-77
2022/08/18 11:16:47;;;;;;;;;;;;;;;20.96;38.72;95348.84;4992991;28;20404;-77
2022/08/18 11:19:13;;;;;;;;;;;;;;;20.91;38.46;95346.06;5019157;28;19976;-77
2022/08/18 11:21:40;;;;;;;;;;;;;;;21.04;38.27;95342.97;5010036;28;20484;-77
2022/08/18 11:24:17;;;;;;;;;;;;;;;20.73;38.53;95335.31;5018869;28;20321;-78
2022/08/18 11:26:45;;;;;;;;;;;;;;;20.16;40.36;95323.66;5019002;28;19965;-79
2022/08/18 11:29:21;;;;;;;;;;;;;;;20.79;38.86;95330.78;5017338;28;20000;-79
2022/08/18 11:31:48;;;;;;;;;;;;;;;21.02;38.37;95328.91;5016343;28;19973;-81
2022/08/18 11:34:17;;;;;;;;;;;;;;;21.03;38.71;95327.00;4993151;28;19989;-79
2022/08/18 11:36:42;;;;;;;;;;;;;;;20.78;38.57;95326.44;4994477;28;20426;-79
2022/08/18 11:39:08;;;;;;;;;;;;;;;20.61;39.64;95332.69;4992746;28;19978;-79
2022/08/18 11:41:33;;;;;;;;;;;;;;;20.97;38.30;95334.25;4998184;28;20489;-78
2022/08/18 11:43:59;;;;;;;;;;;;;;;20.98;38.49;95327.78;5017005;28;20088;-77
2022/08/18 11:46:32;;;;;;;;;;;;;;;20.63;39.52;95310.81;5012111;28;19990;-77
2022/08/18 11:48:58;;;;;;;;;;;;;;;20.58;38.67;95311.56;5014179;28;20075;-79
2022/08/18 11:51:25;;;;;;;;;;;;;;;21.04;39.10;95307.81;5011654;28;20016;-73
2022/08/18 11:53:50;;;;;;;;;;;;;;;21.18;38.80;95315.56;5010668;28;20443;-73
2022/08/18 11:56:16;;;;;;;;;;;;;;;21.57;37.84;95320.03;5009925;28;19952;-71
2022/08/18 11:58:45;;;;;;;;;;;;;;;21.51;37.74;95325.41;5014358;28;19917;-71
2022/08/18 12:01:31;;;;;;;;;;;;;;;21.49;37.74;95324.81;5015071;28;20378;-72
2022/08/18 12:04:12;;;;;;;;;;;;;;;21.53;37.51;95335.97;5004769;28;20200;-72
2022/08/18 12:06:38;;;;;;;;;;;;;;;21.19;38.36;95339.66;5010198;28;20008;-72
2022/08/18 12:09:05;;;;;;;;;;;;;;;21.67;37.41;95363.47;4997068;28;20071;-71
2022/08/18 12:11:31;;;;;;;;;;;;;;;21.71;37.28;95369.16;5004320;28;20029;-73
2022/08/18 12:13:58;;;;;;;;;;;;;;;21.09;38.25;95367.41;4990097;28;20017;-76
2022/08/18 12:16:31;;;;;;;;;;;;;;;20.87;39.07;95365.50;5003463;28;20101;-79
2022/08/18 12:18:57;;;;;;;;;;;;;;;20.53;39.48;95345.81;4986780;28;20325;-78
2022/08/18 12:21:22;;;;;;;;;;;;;;;20.38;40.22;95338.28;4985872;28;19922;-79
2022/08/18 12:23:47;;;;;;;;;;;;;;;20.41;39.00;95316.19;4982620;28;20343;-80
2022/08/18 12:26:13;;;;;;;;;;;;;;;20.52;39.17;95311.72;5014017;28;20317;-79
2022/08/18 12:28:39;;;;;;;;;;;;;;;20.56;39.65;95318.31;5004795;28;19921;-77
2022/08/18 12:31:04;;;;;;;;;;;;;;;20.40;39.87;95322.66;4991410;28;19933;-79
2022/08/18 12:33:29;;;;;;;;;;;;;;;19.93;41.41;95311.13;5007846;28;19980;-78
2022/08/18 12:35:55;;;;;;;;;;;;;;;20.17;39.83;95283.97;4991073;28;20418;-77
2022/08/18 12:38:22;;;;;;;;;;;;;;;19.51;42.68;95279.94;4991149;28;19996;-79
2022/08/18 12:40:47;;;;;;;;;;;;;;;19.74;41.12;95276.25;4993449;28;20024;-80
2022/08/18 12:43:12;;;;;;;;;;;;;;;20.28;40.34;95284.91;4991558;28;19997;-77
2022/08/18 12:45:38;;;;;;;;;;;;;;;19.71;41.83;95272.16;5010830;28;20312;-78
2022/08/18 12:48:03;;;;;;;;;;;;;;;18.61;44.61;95273.94;5009194;28;20433;-79
2022/08/18 12:50:28;;;;;;;;;;;;;;;19.65;42.50;95270.44;5012399;28;20285;-77
2022/08/18 12:52:54;;;;;;;;;;;;;;;20.05;41.02;95274.06;5012016;28;19976;-79
2022/08/18 12:55:19;;;;;;;;;;;;;;;19.82;41.86;95286.66;4996249;28;20410;-77
2022/08/18 12:57:44;;;;;;;;;;;;;;;20.22;41.31;95281.31;5016227;28;19987;-79
2022/08/18 13:00:10;;;;;;;;;;;;;;;20.40;41.10;95276.72;5011844;28;19917;-78
2022/08/18 13:02:36;;;;;;;;;;;;;;;19.96;42.13;95272.84;5012414;28;20379;-79
2022/08/18 13:05:01;;;;;;;;;;;;;;;20.54;39.17;95274.47;5007414;28;20020;-79
2022/08/18 13:07:26;;;;;;;;;;;;;;;20.56;40.32;95283.16;5007869;28;19972;-80
2022/08/18 13:09:51;;;;;;;;;;;;;;;21.02;39.36;95282.91;5008037;28;20627;-77
2022/08/18 13:12:18;;;;;;;;;;;;;;;21.12;39.32;95271.38;5000579;28;20466;-79